sensor_id;sensor_type;location;lat;lon;timestamp;P1;durP1;ratioP1;P2;durP2;ratioP2
46719;SDS011;32452;51.382;-0.002;2023-01-10T00:02:06;25.52;;;4.22;;
46719;SDS011;32452;51.382;-0.002;2023-01-10T00:04:52;24.33;;;4.43;;
46719;SDS011;32452;51.382;-0.002;2023-01-10T00:07:38;24.98;;;4.82;;
46719;SDS011;32452;51.382;-0.002;2023-01-10T00:10:24;24.67;;;4.65;;
46719;SDS011;32452;51.382;-0.002;2023-01-10T00:13:13;24.35;;;4.35;;
46719;SDS011;32452;51.382;-0.002;2023-01-10T00:16:08;28.02;;;4.35;;
46719;SDS011;32452;51.382;-0.002;2023-01-10T00:18:54;26.13;;;4.95;;
46719;SDS011;32452;51.382;-0.002;2023-01-10T00:21:40;19.48;;;4.68;;
46719;SDS011;32452;51.382;-0.002;2023-01-10T00:24:25;24.25;;;3.95;;
46719;SDS011;32452;51.382;-0.002;2023-01-10T00:27:11;27.63;;;4.88;;
46719;SDS011;32452;51.382;-0.002;2023-01-10T00:29:56;19.63;;;4.28;;
46719;SDS011;32452;51.382;-0.002;2023-01-10T00:32:45;23.23;;;3.05;;
46719;SDS011;32452;51.382;-0.002;2023-01-10T00:35:30;23.83;;;4.05;;
46719;SDS011;32452;51.382;-0.002;2023-01-10T00:38:19;21.77;;;3.58;;
46719;SDS011;32452;51.382;-0.002;2023-01-10T00:41:05;21.98;;;4.32;;
46719;SDS011;32452;51.382;-0.002;2023-01-10T00:44:11;24.55;;;4.38;;
46719;SDS011;32452;51.382;-0.002;2023-01-10T00:46:56;19.77;;;5.43;;
46719;SDS011;32452;51.382;-0.002;2023-01-10T00:49:42;18.55;;;3.78;;
46719;SDS011;32452;51.382;-0.002;2023-01-10T00:52:27;22.33;;;3.45;;
46719;SDS011;32452;51.382;-0.002;2023-01-10T00:55:13;15.43;;;3.47;;
46719;SDS011;32452;51.382;-0.002;2023-01-10T00:57:58;17.65;;;3.88;;
46719;SDS011;32452;51.382;-0.002;2023-01-10T01:00:44;27.50;;;5.95;;
46719;SDS011;32452;51.382;-0.002;2023-01-10T01:03:34;24.10;;;3.42;;
46719;SDS011;32452;51.382;-0.002;2023-01-10T01:06:19;36.40;;;7.55;;
46719;SDS011;32452;51.382;-0.002;2023-01-10T01:09:05;21.92;;;4.20;;
46719;SDS011;32452;51.382;-0.002;2023-01-10T01:11:50;22.08;;;4.93;;
46719;SDS011;32452;51.382;-0.002;2023-01-10T01:14:36;25.85;;;3.92;;
46719;SDS011;32452;51.382;-0.002;2023-01-10T01:17:22;19.25;;;3.75;;
46719;SDS011;32452;51.382;-0.002;2023-01-10T01:20:08;20.75;;;3.10;;
46719;SDS011;32452;51.382;-0.002;2023-01-10T01:22:53;19.67;;;3.45;;
46719;SDS011;32452;51.382;-0.002;2023-01-10T01:25:39;17.65;;;3.60;;
46719;SDS011;32452;51.382;-0.002;2023-01-10T01:28:25;25.05;;;3.92;;
46719;SDS011;32452;51.382;-0.002;2023-01-10T01:31:10;25.02;;;3.80;;
46719;SDS011;32452;51.382;-0.002;2023-01-10T01:33:56;24.10;;;5.47;;
46719;SDS011;32452;51.382;-0.002;2023-01-10T01:36:42;21.67;;;3.75;;
46719;SDS011;32452;51.382;-0.002;2023-01-10T01:39:27;26.30;;;5.00;;
46719;SDS011;32452;51.382;-0.002;2023-01-10T01:42:23;26.30;;;4.18;;
46719;SDS011;32452;51.382;-0.002;2023-01-10T01:54:02;17.02;;;3.97;;
46719;SDS011;32452;51.382;-0.002;2023-01-10T01:56:53;22.67;;;4.97;;
46719;SDS011;32452;51.382;-0.002;2023-01-10T01:59:52;29.88;;;6.82;;
46719;SDS011;32452;51.382;-0.002;2023-01-10T02:02:42;20.52;;;3.47;;
46719;SDS011;32452;51.382;-0.002;2023-01-10T02:05:46;17.25;;;3.50;;
46719;SDS011;32452;51.382;-0.002;2023-01-10T02:08:31;18.38;;;3.83;;
46719;SDS011;32452;51.382;-0.002;2023-01-10T02:11:17;19.75;;;3.80;;
46719;SDS011;32452;51.382;-0.002;2023-01-10T02:14:02;19.23;;;3.78;;
46719;SDS011;32452;51.382;-0.002;2023-01-10T02:16:50;24.95;;;3.33;;
46719;SDS011;32452;51.382;-0.002;2023-01-10T02:22:57;26.13;;;4.30;;
46719;SDS011;32452;51.382;-0.002;2023-01-10T02:32:25;27.80;;;4.53;;
46719;SDS011;32452;51.382;-0.002;2023-01-10T02:38:31;17.35;;;4.53;;
46719;SDS011;32452;51.382;-0.002;2023-01-10T02:41:44;25.48;;;6.18;;
46719;SDS011;32452;51.382;-0.002;2023-01-10T02:45:35;20.80;;;3.40;;
46719;SDS011;32452;51.382;-0.002;2023-01-10T02:48:09;22.75;;;4.50;;
46719;SDS011;32452;51.382;-0.002;2023-01-10T02:51:16;20.27;;;4.78;;
46719;SDS011;32452;51.382;-0.002;2023-01-10T02:54:05;17.42;;;4.03;;
46719;SDS011;32452;51.382;-0.002;2023-01-10T03:00:34;21.70;;;5.90;;
46719;SDS011;32452;51.382;-0.002;2023-01-10T03:03:45;16.02;;;3.70;;
46719;SDS011;32452;51.382;-0.002;2023-01-10T03:06:48;18.00;;;3.30;;
46719;SDS011;32452;51.382;-0.002;2023-01-10T03:10:38;21.77;;;3.90;;
46719;SDS011;32452;51.382;-0.002;2023-01-10T03:13:14;21.67;;;3.80;;
46719;SDS011;32452;51.382;-0.002;2023-01-10T03:16:08;20.65;;;4.53;;
46719;SDS011;32452;51.382;-0.002;2023-01-10T03:18:59;25.90;;;5.70;;
46719;SDS011;32452;51.382;-0.002;2023-01-10T03:21:53;18.25;;;4.00;;
46719;SDS011;32452;51.382;-0.002;2023-01-10T03:24:42;30.88;;;5.57;;
46719;SDS011;32452;51.382;-0.002;2023-01-10T03:30:56;22.83;;;3.80;;
46719;SDS011;32452;51.382;-0.002;2023-01-10T03:33:48;20.65;;;4.88;;
46719;SDS011;32452;51.382;-0.002;2023-01-10T03:42:34;23.58;;;5.82;;
46719;SDS011;32452;51.382;-0.002;2023-01-10T03:46:09;21.00;;;4.32;;
46719;SDS011;32452;51.382;-0.002;2023-01-10T03:49:02;14.75;;;3.05;;
46719;SDS011;32452;51.382;-0.002;2023-01-10T03:51:50;21.35;;;4.45;;
46719;SDS011;32452;51.382;-0.002;2023-01-10T03:54:37;20.83;;;4.13;;
46719;SDS011;32452;51.382;-0.002;2023-01-10T03:57:23;22.08;;;3.55;;
46719;SDS011;32452;51.382;-0.002;2023-01-10T04:00:09;22.52;;;4.28;;
46719;SDS011;32452;51.382;-0.002;2023-01-10T04:02:55;24.20;;;4.07;;
46719;SDS011;32452;51.382;-0.002;2023-01-10T04:05:41;27.45;;;3.72;;
46719;SDS011;32452;51.382;-0.002;2023-01-10T04:08:27;20.40;;;3.55;;
46719;SDS011;32452;51.382;-0.002;2023-01-10T04:11:12;20.33;;;4.18;;
46719;SDS011;32452;51.382;-0.002;2023-01-10T04:13:58;26.00;;;4.22;;
46719;SDS011;32452;51.382;-0.002;2023-01-10T04:16:43;28.42;;;6.93;;
46719;SDS011;32452;51.382;-0.002;2023-01-10T04:19:29;27.90;;;4.22;;
46719;SDS011;32452;51.382;-0.002;2023-01-10T04:22:14;22.15;;;4.53;;
46719;SDS011;32452;51.382;-0.002;2023-01-10T04:25:00;21.27;;;3.83;;
46719;SDS011;32452;51.382;-0.002;2023-01-10T04:27:47;25.17;;;5.30;;
46719;SDS011;32452;51.382;-0.002;2023-01-10T04:30:34;22.52;;;4.40;;
46719;SDS011;32452;51.382;-0.002;2023-01-10T04:33:19;24.30;;;3.70;;
46719;SDS011;32452;51.382;-0.002;2023-01-10T04:36:05;16.02;;;3.17;;
46719;SDS011;32452;51.382;-0.002;2023-01-10T04:38:51;20.35;;;5.32;;
46719;SDS011;32452;51.382;-0.002;2023-01-10T04:41:37;18.30;;;3.72;;
46719;SDS011;32452;51.382;-0.002;2023-01-10T04:44:22;14.13;;;3.55;;
46719;SDS011;32452;51.382;-0.002;2023-01-10T04:47:08;18.52;;;4.00;;
46719;SDS011;32452;51.382;-0.002;2023-01-10T04:49:54;22.48;;;4.90;;
46719;SDS011;32452;51.382;-0.002;2023-01-10T04:52:39;17.63;;;3.85;;
46719;SDS011;32452;51.382;-0.002;2023-01-10T04:55:27;16.40;;;3.40;;
46719;SDS011;32452;51.382;-0.002;2023-01-10T04:58:12;24.73;;;3.83;;
46719;SDS011;32452;51.382;-0.002;2023-01-10T05:00:58;25.38;;;4.40;;
46719;SDS011;32452;51.382;-0.002;2023-01-10T05:03:43;23.50;;;3.28;;
46719;SDS011;32452;51.382;-0.002;2023-01-10T05:06:32;23.17;;;4.20;;
46719;SDS011;32452;51.382;-0.002;2023-01-10T05:09:17;22.45;;;3.30;;
46719;SDS011;32452;51.382;-0.002;2023-01-10T05:12:03;21.45;;;4.50;;
46719;SDS011;32452;51.382;-0.002;2023-01-10T05:14:49;15.40;;;2.97;;
46719;SDS011;32452;51.382;-0.002;2023-01-10T05:17:34;25.92;;;4.53;;
46719;SDS011;32452;51.382;-0.002;2023-01-10T05:20:20;22.13;;;3.80;;
46719;SDS011;32452;51.382;-0.002;2023-01-10T05:23:05;21.83;;;4.18;;
46719;SDS011;32452;51.382;-0.002;2023-01-10T05:25:51;18.55;;;3.53;;
46719;SDS011;32452;51.382;-0.002;2023-01-10T05:28:37;21.20;;;4.00;;
46719;SDS011;32452;51.382;-0.002;2023-01-10T05:31:23;17.83;;;4.40;;
46719;SDS011;32452;51.382;-0.002;2023-01-10T05:34:10;21.90;;;4.43;;
46719;SDS011;32452;51.382;-0.002;2023-01-10T05:36:56;14.15;;;2.90;;
46719;SDS011;32452;51.382;-0.002;2023-01-10T05:39:41;25.13;;;4.60;;
46719;SDS011;32452;51.382;-0.002;2023-01-10T05:42:27;28.30;;;4.72;;
46719;SDS011;32452;51.382;-0.002;2023-01-10T05:45:13;22.52;;;3.83;;
46719;SDS011;32452;51.382;-0.002;2023-01-10T05:47:58;22.63;;;4.18;;
46719;SDS011;32452;51.382;-0.002;2023-01-10T05:50:44;26.17;;;4.20;;
46719;SDS011;32452;51.382;-0.002;2023-01-10T05:53:30;22.25;;;6.78;;
46719;SDS011;32452;51.382;-0.002;2023-01-10T05:56:15;26.58;;;4.38;;
46719;SDS011;32452;51.382;-0.002;2023-01-10T05:59:01;20.15;;;3.83;;
46719;SDS011;32452;51.382;-0.002;2023-01-10T06:02:07;18.48;;;4.68;;
46719;SDS011;32452;51.382;-0.002;2023-01-10T06:04:52;26.08;;;5.63;;
46719;SDS011;32452;51.382;-0.002;2023-01-10T06:07:39;14.90;;;3.92;;
46719;SDS011;32452;51.382;-0.002;2023-01-10T06:10:25;24.02;;;4.07;;
46719;SDS011;32452;51.382;-0.002;2023-01-10T06:13:11;21.80;;;3.75;;
46719;SDS011;32452;51.382;-0.002;2023-01-10T06:15:56;26.38;;;3.42;;
46719;SDS011;32452;51.382;-0.002;2023-01-10T06:18:42;28.95;;;3.60;;
46719;SDS011;32452;51.382;-0.002;2023-01-10T06:21:28;26.80;;;4.25;;
46719;SDS011;32452;51.382;-0.002;2023-01-10T06:24:14;18.05;;;4.28;;
46719;SDS011;32452;51.382;-0.002;2023-01-10T06:26:59;21.60;;;4.95;;
46719;SDS011;32452;51.382;-0.002;2023-01-10T06:29:45;24.30;;;5.22;;
46719;SDS011;32452;51.382;-0.002;2023-01-10T06:32:31;27.42;;;5.03;;
46719;SDS011;32452;51.382;-0.002;2023-01-10T06:35:16;27.13;;;4.30;;
46719;SDS011;32452;51.382;-0.002;2023-01-10T06:38:02;20.38;;;3.55;;
46719;SDS011;32452;51.382;-0.002;2023-01-10T06:40:48;27.92;;;4.00;;
46719;SDS011;32452;51.382;-0.002;2023-01-10T06:43:33;24.45;;;3.47;;
46719;SDS011;32452;51.382;-0.002;2023-01-10T06:46:19;27.52;;;4.72;;
46719;SDS011;32452;51.382;-0.002;2023-01-10T06:49:05;23.02;;;4.50;;
46719;SDS011;32452;51.382;-0.002;2023-01-10T06:51:50;16.88;;;4.35;;
46719;SDS011;32452;51.382;-0.002;2023-01-10T06:54:36;26.55;;;4.90;;
46719;SDS011;32452;51.382;-0.002;2023-01-10T06:57:22;27.88;;;5.00;;
46719;SDS011;32452;51.382;-0.002;2023-01-10T07:00:07;29.67;;;4.70;;
46719;SDS011;32452;51.382;-0.002;2023-01-10T07:02:57;30.42;;;5.00;;
46719;SDS011;32452;51.382;-0.002;2023-01-10T07:05:43;18.58;;;4.82;;
46719;SDS011;32452;51.382;-0.002;2023-01-10T07:08:29;32.50;;;7.13;;
46719;SDS011;32452;51.382;-0.002;2023-01-10T07:11:14;27.50;;;4.53;;
46719;SDS011;32452;51.382;-0.002;2023-01-10T07:14:01;29.15;;;5.53;;
46719;SDS011;32452;51.382;-0.002;2023-01-10T07:16:47;30.73;;;6.90;;
46719;SDS011;32452;51.382;-0.002;2023-01-10T07:19:33;22.50;;;4.65;;
46719;SDS011;32452;51.382;-0.002;2023-01-10T07:22:18;29.90;;;3.85;;
46719;SDS011;32452;51.382;-0.002;2023-01-10T07:25:04;35.97;;;4.88;;
46719;SDS011;32452;51.382;-0.002;2023-01-10T07:27:50;26.15;;;4.72;;
46719;SDS011;32452;51.382;-0.002;2023-01-10T07:30:35;27.38;;;5.32;;
46719;SDS011;32452;51.382;-0.002;2023-01-10T07:33:21;29.20;;;4.82;;
46719;SDS011;32452;51.382;-0.002;2023-01-10T07:36:07;31.33;;;4.30;;
46719;SDS011;32452;51.382;-0.002;2023-01-10T07:38:52;30.73;;;4.10;;
46719;SDS011;32452;51.382;-0.002;2023-01-10T07:41:38;29.77;;;4.43;;
46719;SDS011;32452;51.382;-0.002;2023-01-10T07:44:23;21.95;;;4.05;;
46719;SDS011;32452;51.382;-0.002;2023-01-10T07:47:09;30.13;;;4.20;;
46719;SDS011;32452;51.382;-0.002;2023-01-10T07:49:54;22.38;;;3.50;;
46719;SDS011;32452;51.382;-0.002;2023-01-10T07:52:40;23.90;;;4.72;;
46719;SDS011;32452;51.382;-0.002;2023-01-10T07:55:26;17.00;;;4.80;;
46719;SDS011;32452;51.382;-0.002;2023-01-10T07:58:12;17.33;;;3.75;;
46719;SDS011;32452;51.382;-0.002;2023-01-10T08:00:58;22.77;;;3.60;;
46719;SDS011;32452;51.382;-0.002;2023-01-10T08:03:45;13.93;;;3.45;;
46719;SDS011;32452;51.382;-0.002;2023-01-10T08:06:30;20.13;;;3.05;;
46719;SDS011;32452;51.382;-0.002;2023-01-10T08:09:16;19.63;;;3.35;;
46719;SDS011;32452;51.382;-0.002;2023-01-10T08:12:01;20.70;;;3.83;;
46719;SDS011;32452;51.382;-0.002;2023-01-10T08:14:47;13.45;;;2.70;;
46719;SDS011;32452;51.382;-0.002;2023-01-10T08:17:33;17.45;;;3.78;;
46719;SDS011;32452;51.382;-0.002;2023-01-10T08:20:19;11.52;;;2.83;;
46719;SDS011;32452;51.382;-0.002;2023-01-10T08:23:04;18.55;;;3.58;;
46719;SDS011;32452;51.382;-0.002;2023-01-10T08:25:50;16.48;;;3.70;;
46719;SDS011;32452;51.382;-0.002;2023-01-10T08:28:35;16.63;;;2.72;;
46719;SDS011;32452;51.382;-0.002;2023-01-10T08:31:21;10.88;;;2.53;;
46719;SDS011;32452;51.382;-0.002;2023-01-10T08:34:06;19.48;;;3.22;;
46719;SDS011;32452;51.382;-0.002;2023-01-10T08:36:52;16.35;;;3.13;;
46719;SDS011;32452;51.382;-0.002;2023-01-10T08:39:38;9.07;;;3.03;;
46719;SDS011;32452;51.382;-0.002;2023-01-10T08:42:24;17.42;;;2.67;;
46719;SDS011;32452;51.382;-0.002;2023-01-10T08:45:10;15.50;;;2.53;;
46719;SDS011;32452;51.382;-0.002;2023-01-10T08:47:55;17.98;;;2.83;;
46719;SDS011;32452;51.382;-0.002;2023-01-10T08:50:41;9.02;;;2.10;;
46719;SDS011;32452;51.382;-0.002;2023-01-10T08:53:26;14.48;;;4.22;;
46719;SDS011;32452;51.382;-0.002;2023-01-10T08:56:15;13.73;;;2.15;;
46719;SDS011;32452;51.382;-0.002;2023-01-10T08:59:01;19.65;;;2.65;;
46719;SDS011;32452;51.382;-0.002;2023-01-10T09:01:47;15.40;;;2.22;;
46719;SDS011;32452;51.382;-0.002;2023-01-10T09:04:32;13.15;;;2.30;;
46719;SDS011;32452;51.382;-0.002;2023-01-10T09:07:18;13.65;;;1.65;;
46719;SDS011;32452;51.382;-0.002;2023-01-10T09:10:03;15.60;;;3.22;;
46719;SDS011;32452;51.382;-0.002;2023-01-10T09:12:49;14.25;;;2.85;;
46719;SDS011;32452;51.382;-0.002;2023-01-10T09:15:41;9.05;;;1.63;;
46719;SDS011;32452;51.382;-0.002;2023-01-10T09:18:27;5.07;;;1.48;;
46719;SDS011;32452;51.382;-0.002;2023-01-10T09:21:13;5.88;;;1.35;;
46719;SDS011;32452;51.382;-0.002;2023-01-10T09:23:58;6.95;;;1.77;;
46719;SDS011;32452;51.382;-0.002;2023-01-10T09:26:44;7.90;;;1.17;;
46719;SDS011;32452;51.382;-0.002;2023-01-10T09:29:29;4.88;;;1.25;;
46719;SDS011;32452;51.382;-0.002;2023-01-10T09:32:15;5.53;;;1.13;;
46719;SDS011;32452;51.382;-0.002;2023-01-10T09:35:01;1.83;;;0.70;;
46719;SDS011;32452;51.382;-0.002;2023-01-10T09:37:48;1.13;;;0.30;;
46719;SDS011;32452;51.382;-0.002;2023-01-10T09:40:47;1.77;;;0.40;;
46719;SDS011;32452;51.382;-0.002;2023-01-10T09:43:53;2.85;;;0.43;;
46719;SDS011;32452;51.382;-0.002;2023-01-10T09:50:27;1.02;;;0.40;;
46719;SDS011;32452;51.382;-0.002;2023-01-10T09:53:32;0.32;;;0.20;;
46719;SDS011;32452;51.382;-0.002;2023-01-10T09:56:20;2.10;;;0.45;;
46719;SDS011;32452;51.382;-0.002;2023-01-10T09:59:31;2.13;;;0.40;;
46719;SDS011;32452;51.382;-0.002;2023-01-10T10:02:30;1.08;;;0.40;;
46719;SDS011;32452;51.382;-0.002;2023-01-10T10:05:25;0.65;;;0.47;;
46719;SDS011;32452;51.382;-0.002;2023-01-10T10:08:13;2.75;;;0.40;;
46719;SDS011;32452;51.382;-0.002;2023-01-10T10:20:05;1.42;;;0.77;;
46719;SDS011;32452;51.382;-0.002;2023-01-10T10:23:30;2.58;;;0.20;;
46719;SDS011;32452;51.382;-0.002;2023-01-10T10:35:52;1.38;;;0.20;;
46719;SDS011;32452;51.382;-0.002;2023-01-10T10:38:42;1.55;;;0.20;;
46719;SDS011;32452;51.382;-0.002;2023-01-10T10:41:41;1.05;;;0.22;;
46719;SDS011;32452;51.382;-0.002;2023-01-10T10:47:18;0.40;;;0.30;;
46719;SDS011;32452;51.382;-0.002;2023-01-10T10:53:03;4.53;;;0.40;;
46719;SDS011;32452;51.382;-0.002;2023-01-10T10:55:49;0.40;;;0.20;;
46719;SDS011;32452;51.382;-0.002;2023-01-10T10:58:42;1.75;;;0.40;;
46719;SDS011;32452;51.382;-0.002;2023-01-10T11:01:30;1.98;;;0.35;;
46719;SDS011;32452;51.382;-0.002;2023-01-10T11:04:17;2.53;;;0.40;;
46719;SDS011;32452;51.382;-0.002;2023-01-10T11:07:07;1.75;;;0.60;;
46719;SDS011;32452;51.382;-0.002;2023-01-10T11:09:57;1.02;;;0.38;;
46719;SDS011;32452;51.382;-0.002;2023-01-10T11:12:43;1.50;;;0.50;;
46719;SDS011;32452;51.382;-0.002;2023-01-10T11:15:42;2.33;;;0.40;;
46719;SDS011;32452;51.382;-0.002;2023-01-10T11:18:30;1.40;;;0.45;;
46719;SDS011;32452;51.382;-0.002;2023-01-10T11:21:16;1.20;;;0.38;;
46719;SDS011;32452;51.382;-0.002;2023-01-10T11:24:17;3.97;;;0.63;;
46719;SDS011;32452;51.382;-0.002;2023-01-10T11:27:13;2.88;;;0.65;;
46719;SDS011;32452;51.382;-0.002;2023-01-10T11:30:02;1.40;;;0.40;;
46719;SDS011;32452;51.382;-0.002;2023-01-10T11:32:53;2.13;;;0.40;;
46719;SDS011;32452;51.382;-0.002;2023-01-10T11:35:58;3.38;;;0.68;;
46719;SDS011;32452;51.382;-0.002;2023-01-10T11:38:47;1.65;;;0.30;;
46719;SDS011;32452;51.382;-0.002;2023-01-10T11:41:45;1.73;;;0.52;;
46719;SDS011;32452;51.382;-0.002;2023-01-10T11:44:32;1.88;;;0.30;;
46719;SDS011;32452;51.382;-0.002;2023-01-10T11:47:17;1.60;;;0.70;;
46719;SDS011;32452;51.382;-0.002;2023-01-10T11:50:07;3.67;;;0.80;;
46719;SDS011;32452;51.382;-0.002;2023-01-10T11:52:54;1.17;;;0.65;;
46719;SDS011;32452;51.382;-0.002;2023-01-10T11:55:44;1.75;;;0.32;;
46719;SDS011;32452;51.382;-0.002;2023-01-10T11:58:32;3.20;;;0.77;;
46719;SDS011;32452;51.382;-0.002;2023-01-10T12:04:40;0.80;;;0.30;;
46719;SDS011;32452;51.382;-0.002;2023-01-10T12:07:52;0.60;;;0.20;;
46719;SDS011;32452;51.382;-0.002;2023-01-10T12:10:42;1.45;;;0.40;;
46719;SDS011;32452;51.382;-0.002;2023-01-10T12:13:43;0.85;;;0.40;;
46719;SDS011;32452;51.382;-0.002;2023-01-10T12:16:33;3.20;;;0.40;;
46719;SDS011;32452;51.382;-0.002;2023-01-10T12:19:19;1.88;;;0.52;;
46719;SDS011;32452;51.382;-0.002;2023-01-10T12:22:04;1.75;;;0.40;;
46719;SDS011;32452;51.382;-0.002;2023-01-10T12:24:52;1.63;;;0.70;;
46719;SDS011;32452;51.382;-0.002;2023-01-10T12:27:42;1.95;;;0.55;;
46719;SDS011;32452;51.382;-0.002;2023-01-10T12:30:31;1.17;;;0.60;;
46719;SDS011;32452;51.382;-0.002;2023-01-10T12:33:18;2.53;;;0.75;;
46719;SDS011;32452;51.382;-0.002;2023-01-10T12:39:22;4.80;;;2.22;;
46719;SDS011;32452;51.382;-0.002;2023-01-10T12:45:55;4.85;;;1.10;;
46719;SDS011;32452;51.382;-0.002;2023-01-10T12:49:12;7.30;;;2.33;;
46719;SDS011;32452;51.382;-0.002;2023-01-10T12:52:09;6.15;;;1.60;;
46719;SDS011;32452;51.382;-0.002;2023-01-10T12:55:12;9.07;;;1.65;;
46719;SDS011;32452;51.382;-0.002;2023-01-10T12:58:00;11.65;;;1.70;;
46719;SDS011;32452;51.382;-0.002;2023-01-10T13:00:52;17.23;;;3.33;;
46719;SDS011;32452;51.382;-0.002;2023-01-10T13:03:43;25.27;;;3.10;;
46719;SDS011;32452;51.382;-0.002;2023-01-10T13:06:34;17.63;;;3.97;;
46719;SDS011;32452;51.382;-0.002;2023-01-10T13:09:23;22.48;;;5.13;;
46719;SDS011;32452;51.382;-0.002;2023-01-10T13:12:20;25.00;;;5.50;;
46719;SDS011;32452;51.382;-0.002;2023-01-10T13:18:23;29.33;;;5.57;;
46719;SDS011;32452;51.382;-0.002;2023-01-10T13:21:10;20.60;;;5.43;;
46719;SDS011;32452;51.382;-0.002;2023-01-10T13:23:59;24.85;;;4.68;;
46719;SDS011;32452;51.382;-0.002;2023-01-10T13:29:40;29.65;;;6.07;;
46719;SDS011;32452;51.382;-0.002;2023-01-10T13:32:27;26.52;;;6.00;;
46719;SDS011;32452;51.382;-0.002;2023-01-10T13:35:17;35.40;;;5.75;;
46719;SDS011;32452;51.382;-0.002;2023-01-10T13:38:03;29.65;;;5.97;;
46719;SDS011;32452;51.382;-0.002;2023-01-10T13:40:59;36.17;;;6.57;;
46719;SDS011;32452;51.382;-0.002;2023-01-10T13:43:58;41.35;;;7.07;;
46719;SDS011;32452;51.382;-0.002;2023-01-10T13:46:48;45.58;;;8.55;;
46719;SDS011;32452;51.382;-0.002;2023-01-10T13:49:39;38.03;;;7.97;;
46719;SDS011;32452;51.382;-0.002;2023-01-10T13:52:27;44.33;;;10.02;;
46719;SDS011;32452;51.382;-0.002;2023-01-10T13:55:20;52.20;;;9.63;;
46719;SDS011;32452;51.382;-0.002;2023-01-10T13:58:40;72.18;;;11.77;;
46719;SDS011;32452;51.382;-0.002;2023-01-10T14:01:55;39.92;;;8.65;;
46719;SDS011;32452;51.382;-0.002;2023-01-10T14:05:15;44.78;;;8.02;;
46719;SDS011;32452;51.382;-0.002;2023-01-10T14:08:02;40.35;;;7.55;;
46719;SDS011;32452;51.382;-0.002;2023-01-10T14:11:06;38.92;;;8.27;;
46719;SDS011;32452;51.382;-0.002;2023-01-10T14:13:56;53.13;;;11.02;;
46719;SDS011;32452;51.382;-0.002;2023-01-10T14:16:45;44.03;;;8.23;;
46719;SDS011;32452;51.382;-0.002;2023-01-10T14:19:43;36.28;;;9.05;;
46719;SDS011;32452;51.382;-0.002;2023-01-10T14:22:40;61.00;;;10.93;;
46719;SDS011;32452;51.382;-0.002;2023-01-10T14:25:41;45.70;;;9.57;;
46719;SDS011;32452;51.382;-0.002;2023-01-10T14:28:28;45.65;;;9.02;;
46719;SDS011;32452;51.382;-0.002;2023-01-10T14:31:21;42.60;;;8.88;;
46719;SDS011;32452;51.382;-0.002;2023-01-10T14:34:09;48.60;;;8.68;;
46719;SDS011;32452;51.382;-0.002;2023-01-10T14:37:01;46.45;;;9.45;;
46719;SDS011;32452;51.382;-0.002;2023-01-10T14:39:52;52.78;;;9.60;;
46719;SDS011;32452;51.382;-0.002;2023-01-10T14:42:40;33.28;;;8.73;;
46719;SDS011;32452;51.382;-0.002;2023-01-10T14:45:37;37.38;;;7.28;;
46719;SDS011;32452;51.382;-0.002;2023-01-10T14:48:31;30.88;;;8.10;;
46719;SDS011;32452;51.382;-0.002;2023-01-10T14:54:12;35.92;;;7.60;;
46719;SDS011;32452;51.382;-0.002;2023-01-10T14:56:58;43.33;;;6.63;;
46719;SDS011;32452;51.382;-0.002;2023-01-10T14:59:44;30.70;;;6.45;;
46719;SDS011;32452;51.382;-0.002;2023-01-10T15:02:30;37.85;;;7.53;;
46719;SDS011;32452;51.382;-0.002;2023-01-10T15:05:20;39.80;;;7.00;;
46719;SDS011;32452;51.382;-0.002;2023-01-10T15:08:14;38.97;;;6.35;;
46719;SDS011;32452;51.382;-0.002;2023-01-10T15:11:11;34.08;;;6.18;;
46719;SDS011;32452;51.382;-0.002;2023-01-10T15:14:00;37.50;;;8.50;;
46719;SDS011;32452;51.382;-0.002;2023-01-10T15:16:53;36.67;;;7.55;;
46719;SDS011;32452;51.382;-0.002;2023-01-10T15:19:45;31.93;;;7.27;;
46719;SDS011;32452;51.382;-0.002;2023-01-10T15:22:34;42.58;;;7.88;;
46719;SDS011;32452;51.382;-0.002;2023-01-10T15:28:15;31.90;;;6.32;;
46719;SDS011;32452;51.382;-0.002;2023-01-10T15:31:03;30.75;;;5.70;;
46719;SDS011;32452;51.382;-0.002;2023-01-10T15:33:51;31.63;;;6.35;;
46719;SDS011;32452;51.382;-0.002;2023-01-10T15:36:45;28.23;;;5.88;;
46719;SDS011;32452;51.382;-0.002;2023-01-10T15:39:38;31.60;;;5.80;;
46719;SDS011;32452;51.382;-0.002;2023-01-10T15:42:24;27.90;;;6.25;;
46719;SDS011;32452;51.382;-0.002;2023-01-10T15:45:31;26.10;;;5.38;;
46719;SDS011;32452;51.382;-0.002;2023-01-10T15:48:24;27.35;;;6.38;;
46719;SDS011;32452;51.382;-0.002;2023-01-10T15:51:32;40.20;;;7.65;;
46719;SDS011;32452;51.382;-0.002;2023-01-10T15:57:23;37.13;;;7.65;;
46719;SDS011;32452;51.382;-0.002;2023-01-10T16:00:15;39.30;;;7.60;;
46719;SDS011;32452;51.382;-0.002;2023-01-10T16:03:01;33.65;;;8.27;;
46719;SDS011;32452;51.382;-0.002;2023-01-10T16:05:57;37.30;;;6.15;;
46719;SDS011;32452;51.382;-0.002;2023-01-10T16:08:46;31.45;;;6.00;;
46719;SDS011;32452;51.382;-0.002;2023-01-10T16:11:50;36.42;;;7.65;;
46719;SDS011;32452;51.382;-0.002;2023-01-10T16:14:55;39.88;;;6.95;;
46719;SDS011;32452;51.382;-0.002;2023-01-10T16:17:40;37.42;;;7.15;;
46719;SDS011;32452;51.382;-0.002;2023-01-10T16:23:16;35.97;;;7.47;;
46719;SDS011;32452;51.382;-0.002;2023-01-10T16:26:06;36.97;;;5.75;;
46719;SDS011;32452;51.382;-0.002;2023-01-10T16:28:53;63.28;;;12.13;;
46719;SDS011;32452;51.382;-0.002;2023-01-10T16:31:39;41.38;;;8.32;;
46719;SDS011;32452;51.382;-0.002;2023-01-10T16:34:26;41.78;;;8.73;;
46719;SDS011;32452;51.382;-0.002;2023-01-10T16:37:11;41.60;;;8.45;;
46719;SDS011;32452;51.382;-0.002;2023-01-10T16:39:57;39.90;;;8.25;;
46719;SDS011;32452;51.382;-0.002;2023-01-10T16:42:42;34.42;;;8.43;;
46719;SDS011;32452;51.382;-0.002;2023-01-10T16:45:54;44.08;;;8.95;;
46719;SDS011;32452;51.382;-0.002;2023-01-10T16:48:44;32.35;;;6.55;;
46719;SDS011;32452;51.382;-0.002;2023-01-10T16:51:32;32.35;;;7.25;;
46719;SDS011;32452;51.382;-0.002;2023-01-10T16:54:18;34.35;;;6.65;;
46719;SDS011;32452;51.382;-0.002;2023-01-10T16:57:05;27.98;;;5.20;;
46719;SDS011;32452;51.382;-0.002;2023-01-10T16:59:54;36.60;;;5.45;;
46719;SDS011;32452;51.382;-0.002;2023-01-10T17:02:40;30.17;;;6.60;;
46719;SDS011;32452;51.382;-0.002;2023-01-10T17:05:28;37.22;;;5.38;;
46719;SDS011;32452;51.382;-0.002;2023-01-10T17:08:15;28.02;;;6.30;;
46719;SDS011;32452;51.382;-0.002;2023-01-10T17:11:02;29.15;;;6.13;;
46719;SDS011;32452;51.382;-0.002;2023-01-10T17:13:50;37.08;;;5.15;;
46719;SDS011;32452;51.382;-0.002;2023-01-10T17:16:36;31.60;;;7.22;;
46719;SDS011;32452;51.382;-0.002;2023-01-10T17:19:22;25.60;;;4.53;;
46719;SDS011;32452;51.382;-0.002;2023-01-10T17:22:08;25.55;;;4.85;;
46719;SDS011;32452;51.382;-0.002;2023-01-10T17:24:54;24.73;;;4.90;;
46719;SDS011;32452;51.382;-0.002;2023-01-10T17:27:39;27.38;;;5.28;;
46719;SDS011;32452;51.382;-0.002;2023-01-10T17:30:26;19.77;;;3.45;;
46719;SDS011;32452;51.382;-0.002;2023-01-10T17:33:11;16.63;;;3.97;;
46719;SDS011;32452;51.382;-0.002;2023-01-10T17:35:57;20.35;;;4.03;;
46719;SDS011;32452;51.382;-0.002;2023-01-10T17:38:43;13.80;;;2.70;;
46719;SDS011;32452;51.382;-0.002;2023-01-10T17:41:29;21.77;;;4.90;;
46719;SDS011;32452;51.382;-0.002;2023-01-10T17:44:14;21.23;;;3.28;;
46719;SDS011;32452;51.382;-0.002;2023-01-10T17:47:00;11.35;;;2.97;;
46719;SDS011;32452;51.382;-0.002;2023-01-10T17:49:46;16.60;;;3.60;;
46719;SDS011;32452;51.382;-0.002;2023-01-10T17:52:32;13.60;;;3.42;;
46719;SDS011;32452;51.382;-0.002;2023-01-10T17:55:18;13.18;;;3.20;;
46719;SDS011;32452;51.382;-0.002;2023-01-10T17:58:03;22.73;;;4.40;;
46719;SDS011;32452;51.382;-0.002;2023-01-10T18:00:48;20.88;;;3.15;;
46719;SDS011;32452;51.382;-0.002;2023-01-10T18:03:34;18.08;;;4.50;;
46719;SDS011;32452;51.382;-0.002;2023-01-10T18:06:20;14.88;;;2.30;;